createdAt,value
2018-02-08T00:00:08.524Z,37.60
2018-02-08T00:01:08.521Z,35.50
2018-02-08T00:03:01.478Z,37.80
2018-02-08T00:04:01.489Z,38.20
2018-02-08T00:05:54.360Z,36.50
2018-02-08T00:06:54.366Z,37.30
2018-02-08T00:08:47.813Z,36.50
2018-02-08T00:09:47.804Z,33.80
2018-02-08T00:11:40.708Z,36.00
2018-02-08T00:12:40.712Z,33.60
2018-02-08T00:14:33.663Z,33.70
2018-02-08T00:15:33.644Z,33.20
2018-02-08T00:17:27.082Z,36.10
2018-02-08T00:18:27.080Z,33.60
2018-02-08T00:20:19.981Z,35.40
2018-02-08T00:21:19.990Z,36.90
2018-02-08T00:23:12.974Z,33.10
2018-02-08T00:24:12.953Z,35.10
2018-02-08T00:26:05.870Z,34.20
2018-02-08T00:27:05.875Z,34.50
2018-02-08T00:28:58.808Z,33.40
2018-02-08T00:29:58.799Z,34.80
2018-02-08T00:31:51.707Z,33.80
2018-02-08T00:32:51.712Z,35.40
2018-02-08T00:34:44.650Z,37.10
2018-02-08T00:35:44.636Z,36.50
2018-02-08T00:37:37.566Z,37.20
2018-02-08T00:38:37.553Z,36.50
2018-02-08T00:40:30.967Z,34.30
2018-02-08T00:41:30.969Z,34.40
2018-02-08T00:43:23.912Z,35.90
2018-02-08T00:44:23.897Z,35.00
2018-02-08T00:46:16.805Z,34.40
2018-02-08T00:47:16.812Z,36.50
2018-02-08T00:49:09.750Z,35.20
2018-02-08T00:50:09.738Z,39.00
2018-02-08T00:52:02.655Z,37.30
2018-02-08T00:53:02.657Z,40.00
2018-02-08T00:54:55.604Z,35.30
2018-02-08T00:55:55.587Z,34.40
2018-02-08T00:57:48.537Z,34.70
2018-02-08T00:58:48.512Z,34.20
2018-02-08T01:00:41.498Z,36.70
2018-02-08T01:01:41.500Z,33.80
2018-02-08T01:03:34.937Z,35.90
2018-02-08T01:04:34.919Z,36.00
2018-02-08T01:06:27.834Z,32.60
2018-02-08T01:07:27.838Z,34.10
2018-02-08T01:09:20.772Z,34.80
2018-02-08T01:10:20.756Z,33.40
2018-02-08T01:12:13.669Z,34.60
2018-02-08T01:13:13.675Z,33.90
2018-02-08T01:15:06.625Z,36.50
2018-02-08T01:16:06.606Z,32.90
2018-02-08T01:17:59.535Z,35.60
2018-02-08T01:18:59.519Z,38.20
2018-02-08T01:20:52.442Z,38.90
2018-02-08T01:21:52.446Z,40.80
2018-02-08T01:23:45.385Z,35.90
2018-02-08T01:24:45.368Z,36.00
2018-02-08T01:26:38.289Z,35.20
2018-02-08T01:27:38.291Z,35.80
2018-02-08T01:29:31.224Z,34.30
2018-02-08T01:30:31.216Z,35.50
2018-02-08T01:32:24.121Z,34.80
2018-02-08T01:33:24.126Z,37.10
2018-02-08T01:35:17.067Z,38.20
2018-02-08T01:36:17.048Z,37.60
2018-02-08T01:38:09.988Z,37.60
2018-02-08T01:39:09.971Z,35.90
2018-02-08T01:41:02.882Z,36.70
2018-02-08T01:42:02.890Z,36.30
2018-02-08T01:43:55.824Z,39.60
2018-02-08T01:44:55.807Z,36.60
2018-02-08T01:46:48.718Z,38.10
2018-02-08T01:47:48.724Z,38.60
2018-02-08T01:49:41.657Z,38.90
2018-02-08T01:50:41.638Z,37.60
2018-02-08T01:52:34.555Z,42.40
2018-02-08T01:53:34.556Z,39.60
2018-02-08T01:55:27.494Z,40.40
2018-02-08T01:56:27.484Z,40.10
2018-02-08T01:58:20.420Z,43.70
2018-02-08T01:59:20.404Z,39.20
2018-02-08T02:01:13.324Z,37.60
2018-02-08T02:02:13.331Z,39.90
2018-02-08T02:04:06.263Z,35.80
2018-02-08T02:05:06.250Z,36.50
2018-02-08T02:06:59.162Z,37.30
2018-02-08T02:07:59.173Z,37.70
2018-02-08T02:09:52.099Z,38.90
2018-02-08T02:10:52.082Z,38.20
2018-02-08T02:12:44.998Z,35.50
2018-02-08T02:13:45.006Z,39.00
2018-02-08T02:15:37.940Z,40.10
2018-02-08T02:16:37.921Z,36.20
2018-02-08T02:18:30.860Z,37.40
2018-02-08T02:19:30.850Z,38.30
2018-02-08T02:21:23.790Z,40.20
2018-02-08T02:22:23.778Z,35.70
2018-02-08T02:24:16.722Z,38.30
2018-02-08T02:25:16.699Z,38.00
2018-02-08T02:27:09.607Z,39.00
2018-02-08T02:28:09.610Z,39.50
2018-02-08T02:30:02.643Z,39.00
2018-02-08T02:31:02.556Z,37.00
2018-02-08T02:32:55.969Z,37.80
2018-02-08T02:33:55.976Z,41.20
2018-02-08T02:35:48.915Z,40.60
2018-02-08T02:36:48.892Z,36.90
2018-02-08T02:38:41.823Z,43.20
2018-02-08T02:39:41.808Z,42.00
2018-02-08T02:41:34.734Z,40.50
2018-02-08T02:42:34.734Z,40.90
2018-02-08T02:44:27.684Z,40.80
2018-02-08T02:45:27.657Z,42.70
2018-02-08T02:47:20.564Z,39.40
2018-02-08T02:48:20.569Z,41.10
2018-02-08T02:50:13.509Z,40.50
2018-02-08T02:51:13.491Z,39.20
2018-02-08T02:53:07.399Z,36.60
2018-02-08T02:54:07.396Z,38.80
2018-02-08T02:56:00.335Z,35.70
2018-02-08T02:57:00.322Z,40.10
2018-02-08T02:58:53.254Z,40.10
2018-02-08T02:59:53.237Z,40.50
2018-02-08T03:01:46.148Z,37.90
2018-02-08T03:02:46.154Z,42.30
2018-02-08T03:04:39.138Z,35.10
2018-02-08T03:05:39.078Z,38.50
2018-02-08T03:07:31.993Z,40.80
2018-02-08T03:08:31.990Z,40.50
2018-02-08T03:10:24.927Z,38.10
2018-02-08T03:11:24.916Z,38.80
2018-02-08T03:13:17.829Z,38.60
2018-02-08T03:14:17.833Z,40.80
2018-02-08T03:16:10.782Z,36.00
2018-02-08T03:17:10.755Z,39.30
2018-02-08T03:19:03.691Z,35.60
2018-02-08T03:20:03.678Z,37.60
2018-02-08T03:21:56.625Z,35.60
2018-02-08T03:22:56.606Z,37.40
2018-02-08T03:24:49.536Z,37.10
2018-02-08T03:25:49.520Z,37.90
2018-02-08T03:27:42.430Z,36.10
2018-02-08T03:28:42.438Z,40.00
2018-02-08T03:30:35.379Z,39.30
2018-02-08T03:31:35.359Z,38.50
2018-02-08T03:33:28.773Z,40.00
2018-02-08T03:34:28.788Z,36.40
2018-02-08T03:36:21.706Z,40.80
2018-02-08T03:37:21.702Z,39.30
2018-02-08T03:39:14.622Z,41.00
2018-02-08T03:40:14.608Z,41.40
2018-02-08T03:42:07.536Z,43.10
2018-02-08T03:43:07.541Z,42.80
2018-02-08T03:45:00.468Z,40.60
2018-02-08T03:46:00.452Z,42.10
2018-02-08T03:47:53.364Z,39.10
2018-02-08T03:48:53.378Z,42.20
2018-02-08T03:50:46.308Z,42.30
2018-02-08T03:51:46.294Z,40.40
2018-02-08T03:53:40.202Z,39.20
2018-02-08T03:54:40.204Z,38.90
2018-02-08T03:56:33.142Z,41.60
2018-02-08T03:57:33.129Z,38.70
2018-02-08T03:59:26.554Z,40.10
2018-02-08T04:00:26.541Z,42.70
2018-02-08T04:02:19.456Z,39.60
2018-02-08T04:03:19.461Z,40.40
2018-02-08T04:05:12.397Z,40.50
2018-02-08T04:06:12.379Z,42.60
2018-02-08T04:08:05.290Z,38.20
2018-02-08T04:09:05.328Z,38.00
2018-02-08T04:10:58.237Z,38.50
2018-02-08T04:11:58.220Z,41.80
2018-02-08T04:13:51.139Z,40.10
2018-02-08T04:14:51.151Z,39.70
2018-02-08T04:16:44.059Z,38.70
2018-02-08T04:17:44.046Z,40.30
2018-02-08T04:19:36.986Z,41.80
2018-02-08T04:20:36.967Z,42.30
2018-02-08T04:22:29.904Z,41.80
2018-02-08T04:23:29.883Z,41.30
2018-02-08T04:25:22.854Z,41.00
2018-02-08T04:26:22.822Z,45.10
2018-02-08T04:28:15.750Z,43.30
2018-02-08T04:29:15.741Z,41.40
2018-02-08T04:31:08.673Z,53.40
2018-02-08T04:32:08.656Z,48.70
2018-02-08T04:34:02.080Z,51.10
2018-02-08T04:35:02.068Z,49.80
2018-02-08T04:36:55.013Z,54.70
2018-02-08T04:37:54.996Z,57.40
2018-02-08T04:39:47.911Z,52.50
2018-02-08T04:40:47.913Z,50.20
2018-02-08T04:42:40.850Z,46.50
2018-02-08T04:43:40.833Z,51.00
2018-02-08T04:45:33.768Z,44.90
2018-02-08T04:46:33.753Z,42.90
2018-02-08T04:48:27.157Z,38.60
2018-02-08T04:49:27.175Z,40.80
2018-02-08T04:51:20.091Z,41.50
2018-02-08T04:52:20.078Z,38.70
2018-02-08T04:54:12.988Z,44.50
2018-02-08T04:55:12.997Z,43.00
2018-02-08T04:57:05.924Z,42.40
2018-02-08T04:58:05.909Z,43.30
2018-02-08T04:59:58.821Z,41.60
2018-02-08T05:00:58.826Z,40.90
2018-02-08T05:02:51.756Z,43.70
2018-02-08T05:03:51.739Z,42.40
2018-02-08T05:05:44.692Z,42.80
2018-02-08T05:06:44.672Z,40.10
2018-02-08T05:08:37.594Z,40.00
2018-02-08T05:09:37.591Z,41.80
2018-02-08T05:11:30.525Z,40.80
2018-02-08T05:12:30.510Z,42.20
2018-02-08T05:14:23.425Z,40.20
2018-02-08T05:15:23.426Z,39.50
2018-02-08T05:17:16.365Z,37.40
2018-02-08T05:18:16.346Z,38.30
2018-02-08T05:20:09.258Z,38.30
2018-02-08T05:21:09.275Z,41.10
2018-02-08T05:23:02.191Z,39.80
2018-02-08T05:24:02.186Z,41.60
2018-02-08T05:25:55.118Z,41.90
2018-02-08T05:26:55.106Z,40.30
2018-02-08T05:28:48.040Z,40.50
2018-02-08T05:29:48.022Z,38.30
2018-02-08T05:31:40.964Z,41.10
2018-02-08T05:32:40.939Z,41.40
2018-02-08T05:34:34.360Z,42.70
2018-02-08T05:35:34.352Z,39.60
2018-02-08T05:37:27.290Z,37.40
2018-02-08T05:38:27.277Z,35.50
2018-02-08T05:40:20.188Z,38.90
2018-02-08T05:41:20.191Z,34.30
2018-02-08T05:43:13.124Z,37.60
2018-02-08T05:44:13.105Z,37.40
2018-02-08T05:46:06.011Z,38.60
2018-02-08T05:47:06.024Z,36.50
2018-02-08T05:48:58.967Z,34.80
2018-02-08T05:49:58.934Z,37.80
2018-02-08T05:51:51.894Z,38.10
2018-02-08T05:52:51.842Z,38.00
2018-02-08T05:54:44.758Z,46.80
2018-02-08T05:55:44.764Z,44.60
2018-02-08T05:57:37.696Z,82.50
2018-02-08T05:58:37.677Z,63.60
2018-02-08T06:00:30.594Z,82.50
2018-02-08T06:01:30.601Z,89.40
2018-02-08T06:03:23.527Z,60.70
2018-02-08T06:04:23.515Z,65.50
2018-02-08T06:06:16.433Z,53.00
2018-02-08T06:07:16.437Z,51.40
2018-02-08T06:09:09.371Z,42.60
2018-02-08T06:10:09.350Z,40.90
2018-02-08T06:12:02.283Z,39.00
2018-02-08T06:13:02.269Z,39.60
2018-02-08T06:14:55.180Z,44.10
2018-02-08T06:15:55.187Z,43.20
2018-02-08T06:17:48.118Z,42.60
2018-02-08T06:18:48.107Z,44.50
2018-02-08T06:20:41.518Z,37.70
2018-02-08T06:21:41.518Z,36.90
2018-02-08T06:23:34.455Z,40.00
2018-02-08T06:24:34.433Z,36.50
2018-02-08T06:26:27.349Z,39.90
2018-02-08T06:27:27.349Z,39.80
2018-02-08T06:29:20.778Z,38.90
2018-02-08T06:30:20.768Z,41.90
2018-02-08T06:32:16.715Z,40.50
2018-02-08T06:33:16.676Z,40.50
2018-02-08T06:35:09.587Z,41.70
2018-02-08T06:36:09.591Z,38.70
2018-02-08T06:38:02.516Z,39.60
2018-02-08T06:39:02.506Z,39.60
2018-02-08T06:40:55.425Z,36.40
2018-02-08T06:41:55.418Z,39.90
2018-02-08T06:43:48.353Z,37.90
2018-02-08T06:44:48.337Z,36.40
2018-02-08T06:46:41.272Z,37.70
2018-02-08T06:47:41.258Z,35.40
2018-02-08T06:49:34.698Z,35.50
2018-02-08T06:50:34.671Z,37.40
2018-02-08T06:52:27.604Z,40.80
2018-02-08T06:53:27.590Z,37.00
2018-02-08T06:55:20.492Z,39.50
2018-02-08T06:56:20.499Z,39.40
2018-02-08T06:58:13.450Z,40.60
2018-02-08T06:59:13.512Z,36.90
2018-02-08T07:01:06.323Z,38.40
2018-02-08T07:02:06.335Z,38.40
2018-02-08T07:03:59.252Z,34.70
2018-02-08T07:04:59.238Z,40.00
2018-02-08T07:06:55.159Z,36.20
2018-02-08T07:07:55.155Z,39.40
2018-02-08T07:09:49.606Z,35.10
2018-02-08T07:10:49.595Z,36.90
2018-02-08T07:12:43.183Z,36.70
2018-02-08T07:13:42.568Z,36.10
2018-02-08T07:15:37.049Z,37.80
2018-02-08T07:16:37.038Z,34.80
2018-02-08T07:18:30.510Z,36.20
2018-02-08T07:19:30.517Z,35.80
2018-02-08T07:21:23.444Z,36.30
2018-02-08T07:22:23.454Z,33.30
2018-02-08T07:24:16.424Z,37.00
2018-02-08T07:25:16.568Z,36.50
2018-02-08T07:27:09.870Z,36.40
2018-02-08T07:28:09.870Z,36.50
2018-02-08T07:30:02.844Z,37.10
2018-02-08T07:31:03.246Z,35.40
2018-02-08T07:32:55.788Z,37.90
2018-02-08T07:33:55.769Z,40.30
2018-02-08T07:35:48.790Z,42.50
2018-02-08T07:36:48.722Z,38.90
2018-02-08T07:38:42.267Z,38.60
2018-02-08T07:39:42.267Z,37.90
2018-02-08T07:41:36.728Z,39.70
2018-02-08T07:42:36.683Z,43.60
2018-02-08T07:44:35.021Z,41.20
2018-02-08T07:45:35.150Z,40.60
2018-02-08T07:47:27.948Z,39.00
2018-02-08T07:48:28.019Z,40.80
2018-02-08T07:50:21.005Z,42.50
2018-02-08T07:51:20.973Z,40.60
2018-02-08T07:53:14.411Z,41.60
2018-02-08T07:54:14.325Z,37.20
2018-02-08T07:56:07.796Z,37.90
2018-02-08T07:57:07.832Z,40.00
2018-02-08T07:59:00.765Z,38.00
2018-02-08T08:00:00.765Z,39.30
2018-02-08T08:01:53.788Z,40.70
2018-02-08T08:02:53.815Z,40.40
2018-02-08T08:04:46.664Z,43.00
2018-02-08T08:05:46.671Z,41.60
2018-02-08T08:07:39.687Z,42.80
2018-02-08T08:08:39.811Z,40.90
2018-02-08T08:10:32.749Z,44.70
2018-02-08T08:11:32.591Z,41.90
2018-02-08T08:13:25.556Z,47.40
2018-02-08T08:14:25.519Z,44.80
2018-02-08T08:16:18.465Z,46.40
2018-02-08T08:17:18.501Z,46.90
2018-02-08T08:19:11.975Z,44.00
2018-02-08T08:20:11.927Z,42.80
2018-02-08T08:22:04.941Z,48.40
2018-02-08T08:23:04.983Z,45.10
2018-02-08T08:24:57.963Z,46.40
2018-02-08T08:25:57.937Z,45.30
2018-02-08T08:27:50.960Z,48.10
2018-02-08T08:28:50.960Z,44.20
2018-02-08T08:30:44.036Z,43.30
2018-02-08T08:31:44.026Z,44.20
2018-02-08T08:33:37.020Z,41.30
2018-02-08T08:34:37.004Z,45.10
2018-02-08T08:36:30.171Z,45.50
2018-02-08T08:37:29.964Z,45.30
2018-02-08T08:39:22.927Z,47.20
2018-02-08T08:40:22.949Z,43.70
2018-02-08T08:42:15.854Z,45.80
2018-02-08T08:43:15.856Z,43.40
2018-02-08T08:45:08.789Z,42.50
2018-02-08T08:46:08.775Z,43.90
2018-02-08T08:48:01.695Z,48.80
2018-02-08T08:49:01.699Z,48.90
2018-02-08T08:50:54.649Z,46.10
2018-02-08T08:51:54.752Z,47.90
2018-02-08T08:53:47.722Z,47.90
2018-02-08T08:54:47.548Z,45.40
2018-02-08T08:56:40.534Z,46.60
2018-02-08T08:57:40.497Z,46.10
2018-02-08T08:59:33.574Z,48.90
2018-02-08T09:00:33.395Z,46.80
2018-02-08T09:02:26.388Z,47.70
2018-02-08T09:03:27.179Z,42.70
2018-02-08T09:05:19.358Z,47.60
2018-02-08T09:06:19.365Z,47.30
2018-02-08T09:08:12.191Z,46.60
2018-02-08T09:09:12.159Z,42.40
2018-02-08T09:11:05.388Z,45.50
2018-02-08T09:12:05.262Z,46.00
2018-02-08T09:13:58.484Z,47.10
2018-02-08T09:14:58.187Z,43.60
2018-02-08T09:16:52.074Z,43.30
2018-02-08T09:17:51.186Z,45.50
2018-02-08T09:19:44.196Z,45.70
2018-02-08T09:20:44.101Z,43.90
2018-02-08T09:22:37.233Z,40.30
2018-02-08T09:23:37.217Z,42.20
2018-02-08T09:25:29.993Z,44.40
2018-02-08T09:26:30.051Z,41.20
2018-02-08T09:28:22.980Z,42.20
2018-02-08T09:29:23.117Z,40.90
2018-02-08T09:31:15.988Z,40.40
2018-02-08T09:32:16.299Z,44.90
2018-02-08T09:34:08.938Z,43.40
2018-02-08T09:35:08.823Z,44.60
2018-02-08T09:37:01.866Z,43.60
2018-02-08T09:38:01.804Z,42.20
2018-02-08T09:39:01.732Z,45.00
2018-02-08T09:40:01.795Z,43.30
2018-02-08T09:41:01.778Z,43.00
2018-02-08T09:42:02.070Z,42.10
2018-02-08T09:43:01.798Z,45.00
2018-02-08T09:44:01.930Z,40.70
2018-02-08T09:45:01.860Z,42.20
2018-02-08T09:46:01.812Z,44.00
2018-02-08T09:47:02.425Z,42.20
2018-02-08T09:48:01.890Z,41.40
2018-02-08T09:49:01.942Z,39.00
2018-02-08T09:50:01.863Z,45.50
2018-02-08T09:51:01.947Z,44.70
2018-02-08T09:52:02.034Z,43.80
2018-02-08T09:53:02.298Z,45.00
2018-02-08T09:54:02.081Z,40.10
2018-02-08T09:55:02.196Z,40.80
2018-02-08T09:56:02.097Z,42.40
2018-02-08T09:57:02.326Z,42.30
2018-02-08T09:58:02.038Z,41.00
2018-02-08T09:59:02.433Z,40.60
2018-02-08T10:00:02.210Z,43.20
2018-02-08T10:01:02.055Z,40.30
2018-02-08T10:02:02.344Z,43.20
2018-02-08T10:03:02.142Z,39.80
2018-02-08T10:04:02.089Z,38.90
2018-02-08T10:05:02.126Z,39.30
2018-02-08T10:06:02.193Z,36.80
2018-02-08T10:07:02.373Z,42.60
2018-02-08T10:08:02.278Z,37.70
2018-02-08T10:09:02.114Z,40.70
2018-02-08T10:10:02.158Z,40.80
2018-02-08T10:11:02.142Z,39.40
2018-02-08T10:12:02.152Z,42.30
2018-02-08T10:13:02.163Z,39.50
2018-02-08T10:14:02.177Z,38.50
2018-02-08T10:15:02.192Z,37.00
2018-02-08T10:16:02.203Z,34.70
2018-02-08T10:17:02.278Z,35.00
2018-02-08T10:18:02.243Z,34.30
2018-02-08T10:19:02.244Z,35.00
2018-02-08T10:20:02.282Z,34.90
2018-02-08T10:21:02.299Z,36.00
2018-02-08T10:22:02.294Z,33.80
2018-02-08T10:23:02.308Z,34.00
2018-02-08T10:24:02.347Z,33.80
2018-02-08T10:25:02.351Z,39.30
2018-02-08T10:26:02.376Z,38.20
2018-02-08T10:27:02.374Z,34.10
2018-02-08T10:28:02.394Z,36.10
2018-02-08T10:29:02.383Z,33.40
2018-02-08T10:30:02.409Z,35.70
2018-02-08T10:31:02.406Z,37.20
2018-02-08T10:32:02.453Z,38.70
2018-02-08T10:33:02.434Z,35.20
2018-02-08T10:34:02.464Z,34.80
2018-02-08T10:35:02.462Z,36.00
2018-02-08T10:36:02.523Z,35.30
2018-02-08T10:37:02.538Z,38.60
2018-02-08T10:38:02.521Z,35.10
2018-02-08T10:39:02.521Z,37.60
2018-02-08T10:40:02.529Z,33.50
2018-02-08T10:41:02.572Z,34.30
2018-02-08T10:42:02.555Z,30.80
2018-02-08T10:43:02.616Z,30.40
2018-02-08T10:44:02.600Z,31.30
2018-02-08T10:45:02.626Z,29.30
2018-02-08T10:46:02.613Z,30.70
2018-02-08T10:47:02.673Z,32.50
2018-02-08T10:48:02.649Z,33.30
2018-02-08T10:49:02.663Z,37.10
2018-02-08T10:50:02.728Z,33.30
2018-02-08T10:51:02.683Z,34.40
2018-02-08T10:52:02.708Z,33.70
2018-02-08T10:53:02.717Z,34.30
2018-02-08T10:54:02.735Z,34.50
2018-02-08T10:55:02.774Z,29.50
2018-02-08T10:56:02.764Z,28.60
2018-02-08T10:57:02.793Z,33.50
2018-02-08T10:58:02.788Z,30.70
2018-02-08T10:59:02.808Z,28.40
2018-02-08T11:00:02.815Z,28.60
2018-02-08T11:01:02.876Z,28.20
2018-02-08T11:02:02.842Z,29.30
2018-02-08T11:03:02.848Z,32.10
2018-02-08T11:04:02.863Z,29.50
2018-02-08T11:05:02.878Z,30.10
2018-02-08T11:06:02.958Z,28.60
2018-02-08T11:07:02.916Z,29.70
2018-02-08T11:08:02.920Z,31.50
2018-02-08T11:09:02.930Z,29.60
2018-02-08T11:10:03.011Z,29.60
2018-02-08T11:11:02.973Z,32.00
2018-02-08T11:12:02.975Z,30.70
2018-02-08T11:13:03.002Z,30.70
2018-02-08T11:14:03.012Z,30.30
2018-02-08T11:15:03.035Z,32.20
2018-02-08T11:16:03.036Z,30.90
2018-02-08T11:17:03.060Z,35.30
2018-02-08T11:18:03.059Z,35.60
2018-02-08T11:19:03.104Z,36.10
2018-02-08T11:20:03.090Z,36.60
2018-02-08T11:21:03.170Z,36.60
2018-02-08T11:22:03.113Z,37.60
2018-02-08T11:23:03.129Z,35.50
2018-02-08T11:24:03.143Z,35.10
2018-02-08T11:25:03.176Z,36.10
2018-02-08T11:26:03.176Z,36.00
2018-02-08T11:27:03.204Z,34.60
2018-02-08T11:28:03.205Z,34.30
2018-02-08T11:29:03.236Z,35.30
2018-02-08T11:30:03.230Z,34.00
2018-02-08T11:31:03.248Z,35.00
2018-02-08T11:32:03.263Z,34.30
2018-02-08T11:33:03.279Z,34.00
2018-02-08T11:34:03.331Z,34.20
2018-02-08T11:35:03.331Z,33.40
2018-02-08T11:36:03.375Z,35.10
2018-02-08T11:37:03.330Z,35.10
2018-02-08T11:38:03.361Z,32.90
2018-02-08T11:39:03.369Z,33.90
2018-02-08T11:40:03.377Z,35.50
2018-02-08T11:41:03.389Z,34.20
2018-02-08T11:42:03.406Z,36.50
2018-02-08T11:43:03.438Z,36.00
2018-02-08T11:44:03.485Z,35.40
2018-02-08T11:45:03.445Z,35.30
2018-02-08T11:46:03.482Z,37.80
2018-02-08T11:47:03.504Z,37.50
2018-02-08T11:48:03.540Z,37.60
2018-02-08T11:49:03.538Z,38.90
2018-02-08T11:50:03.552Z,41.40
2018-02-08T11:51:03.549Z,37.20
2018-02-08T11:52:03.615Z,33.90
2018-02-08T11:53:03.578Z,37.70
2018-02-08T11:54:03.587Z,37.50
2018-02-08T11:55:03.594Z,35.00
2018-02-08T11:56:03.623Z,33.30
2018-02-08T11:57:03.638Z,33.60
2018-02-08T11:58:03.638Z,35.80
2018-02-08T11:59:03.649Z,35.90
2018-02-08T12:00:03.678Z,37.10
2018-02-08T12:01:03.683Z,35.40
2018-02-08T12:02:03.705Z,36.10
2018-02-08T12:03:03.721Z,36.40
2018-02-08T12:04:03.730Z,37.40
2018-02-08T12:05:03.747Z,34.50
2018-02-08T12:06:03.760Z,33.70
2018-02-08T12:07:03.776Z,38.50
2018-02-08T12:08:03.781Z,34.50
2018-02-08T12:09:03.798Z,34.10
2018-02-08T12:10:03.816Z,34.60
2018-02-08T12:11:03.832Z,35.30
2018-02-08T12:12:03.843Z,34.90
2018-02-08T12:13:03.856Z,35.80
2018-02-08T12:14:03.869Z,35.50
2018-02-08T12:15:03.890Z,34.50
2018-02-08T12:16:03.902Z,35.30
2018-02-08T12:17:03.917Z,36.70
2018-02-08T12:18:03.927Z,34.80
2018-02-08T12:19:03.944Z,33.30
2018-02-08T12:20:03.961Z,33.50
2018-02-08T12:21:03.973Z,29.60
2018-02-08T12:22:03.988Z,31.80
2018-02-08T12:23:04.005Z,32.90
2018-02-08T12:24:04.020Z,33.40
2018-02-08T12:25:04.035Z,34.10
2018-02-08T12:26:04.069Z,31.90
2018-02-08T12:27:04.063Z,32.40
2018-02-08T12:28:04.086Z,28.90
2018-02-08T12:29:04.089Z,31.20
2018-02-08T12:30:04.107Z,29.20
2018-02-08T12:31:04.125Z,30.80
2018-02-08T12:32:04.137Z,31.20
2018-02-08T12:33:04.158Z,30.40
2018-02-08T12:34:04.172Z,32.90
2018-02-08T12:35:04.181Z,34.10
2018-02-08T12:36:04.196Z,32.60
2018-02-08T12:37:04.217Z,33.70
2018-02-08T12:38:04.225Z,33.40
2018-02-08T12:39:04.244Z,32.30
2018-02-08T12:40:04.253Z,34.10
2018-02-08T12:41:04.332Z,34.90
2018-02-08T12:42:04.285Z,34.70
2018-02-08T12:43:04.404Z,36.00
2018-02-08T12:44:04.318Z,33.40
2018-02-08T12:45:04.328Z,33.30
2018-02-08T12:46:04.349Z,35.50
2018-02-08T12:47:04.360Z,35.60
2018-02-08T12:48:04.374Z,32.00
2018-02-08T12:49:04.389Z,33.60
2018-02-08T12:50:04.430Z,32.60
2018-02-08T12:51:04.566Z,31.50
2018-02-08T12:52:04.496Z,31.90
2018-02-08T12:53:04.453Z,29.80
2018-02-08T12:54:04.472Z,33.00
2018-02-08T12:55:04.478Z,29.70
2018-02-08T12:56:04.502Z,31.00
2018-02-08T12:57:04.550Z,31.50
2018-02-08T12:58:04.524Z,30.80
2018-02-08T12:59:04.540Z,29.10
2018-02-08T13:00:04.559Z,30.60
2018-02-08T13:01:04.569Z,32.00
2018-02-08T13:02:04.585Z,29.30
2018-02-08T13:03:04.599Z,29.40
2018-02-08T13:04:04.619Z,30.00
2018-02-08T13:05:04.629Z,29.00
2018-02-08T13:06:04.648Z,32.00
2018-02-08T13:07:04.701Z,32.70
2018-02-08T13:08:04.674Z,29.00
2018-02-08T13:09:04.686Z,31.30
2018-02-08T13:10:04.702Z,31.20
2018-02-08T13:11:04.724Z,29.30
2018-02-08T13:12:04.737Z,30.30
2018-02-08T13:13:04.756Z,27.00
2018-02-08T13:14:04.766Z,30.20
2018-02-08T13:15:04.783Z,30.30
2018-02-08T13:16:04.792Z,30.00
2018-02-08T13:17:04.818Z,28.90
2018-02-08T13:18:04.828Z,29.60
2018-02-08T13:19:04.840Z,29.50
2018-02-08T13:20:04.858Z,28.30
2018-02-08T13:21:04.872Z,29.80
2018-02-08T13:22:04.886Z,27.90
2018-02-08T13:23:04.977Z,26.50
2018-02-08T13:24:04.919Z,26.70
2018-02-08T13:25:04.940Z,25.40
2018-02-08T13:26:04.949Z,25.40
2018-02-08T13:27:04.968Z,27.60
2018-02-08T13:28:04.978Z,26.70
2018-02-08T13:29:04.994Z,28.50
2018-02-08T13:30:05.008Z,27.00
2018-02-08T13:31:05.155Z,25.50
2018-02-08T13:32:05.047Z,26.40
2018-02-08T13:33:05.050Z,26.20
2018-02-08T13:34:05.068Z,24.40
2018-02-08T13:35:05.080Z,28.50
2018-02-08T13:36:05.101Z,28.40
2018-02-08T13:37:05.115Z,28.30
2018-02-08T13:38:05.127Z,27.40
2018-02-08T13:39:05.147Z,25.90
2018-02-08T13:40:05.156Z,25.00
2018-02-08T13:41:05.174Z,26.80
2018-02-08T13:42:05.189Z,26.70
2018-02-08T13:43:05.206Z,26.70
2018-02-08T13:44:05.223Z,25.40
2018-02-08T13:45:05.232Z,27.90
2018-02-08T13:46:05.250Z,24.90
2018-02-08T13:47:05.265Z,24.10
2018-02-08T13:48:05.280Z,26.90
2018-02-08T13:49:05.292Z,25.00
2018-02-08T13:50:05.309Z,25.20
2018-02-08T13:51:05.327Z,26.40
2018-02-08T13:52:05.344Z,25.30
2018-02-08T13:53:05.357Z,26.20
2018-02-08T13:54:05.371Z,27.10
2018-02-08T13:55:05.386Z,27.40
2018-02-08T13:56:05.408Z,27.40
2018-02-08T13:57:05.414Z,27.00
2018-02-08T13:58:05.430Z,25.60
2018-02-08T13:59:05.445Z,25.30
2018-02-08T14:00:05.463Z,25.80
2018-02-08T14:01:05.485Z,25.30
2018-02-08T14:02:05.494Z,28.20
2018-02-08T14:03:05.514Z,27.40
2018-02-08T14:04:05.524Z,27.10
2018-02-08T14:05:05.556Z,29.00
2018-02-08T14:06:05.551Z,28.00
2018-02-08T14:07:05.570Z,28.80
2018-02-08T14:08:05.585Z,26.60
2018-02-08T14:09:05.599Z,28.00
2018-02-08T14:10:05.614Z,27.80
2018-02-08T14:11:05.628Z,27.70
2018-02-08T14:12:05.645Z,26.60
2018-02-08T14:13:05.663Z,28.10
2018-02-08T14:14:05.675Z,28.10
2018-02-08T14:15:05.691Z,27.80
2018-02-08T14:16:05.707Z,27.40
2018-02-08T14:17:05.723Z,29.10
2018-02-08T14:18:05.738Z,28.90
2018-02-08T14:19:05.749Z,29.60
2018-02-08T14:20:05.905Z,27.90
2018-02-08T14:21:05.797Z,27.40
2018-02-08T14:22:05.794Z,28.90
2018-02-08T14:23:05.808Z,27.20
2018-02-08T14:24:05.830Z,27.00
2018-02-08T14:25:05.841Z,30.10
2018-02-08T14:26:05.857Z,31.80
2018-02-08T14:27:05.872Z,30.20
2018-02-08T14:28:05.897Z,32.00
2018-02-08T14:29:05.902Z,28.70
2018-02-08T14:30:05.918Z,29.60
2018-02-08T14:31:05.938Z,30.00
2018-02-08T14:32:06.020Z,31.00
2018-02-08T14:33:06.024Z,30.30
2018-02-08T14:34:06.020Z,32.60
2018-02-08T14:35:05.999Z,31.70
2018-02-08T14:36:06.017Z,31.00
2018-02-08T14:37:06.036Z,30.30
2018-02-08T14:38:06.042Z,31.90
2018-02-08T14:39:06.054Z,31.70
2018-02-08T14:40:06.071Z,33.50
2018-02-08T14:41:06.176Z,34.70
2018-02-08T14:42:06.190Z,34.40
2018-02-08T14:43:06.153Z,31.10
2018-02-08T14:44:06.129Z,34.50
2018-02-08T14:45:06.148Z,34.60
2018-02-08T14:46:06.167Z,32.50
2018-02-08T14:47:06.183Z,37.20
2018-02-08T14:48:06.194Z,39.80
2018-02-08T14:49:06.210Z,40.70
2018-02-08T14:50:06.225Z,35.20
2018-02-08T14:51:06.237Z,32.70
2018-02-08T14:52:06.252Z,32.50
2018-02-08T14:53:06.262Z,27.70
2018-02-08T14:54:06.281Z,28.40
2018-02-08T14:55:06.297Z,27.20
2018-02-08T14:56:06.312Z,30.30
2018-02-08T14:57:06.390Z,29.50
2018-02-08T14:58:06.345Z,29.10
2018-02-08T14:59:06.354Z,27.10
2018-02-08T15:00:06.369Z,30.40
2018-02-08T15:01:06.385Z,29.90
2018-02-08T15:02:06.400Z,30.60
2018-02-08T15:03:06.416Z,32.30
2018-02-08T15:04:06.434Z,28.60
2018-02-08T15:05:06.483Z,30.00
2018-02-08T15:06:06.464Z,30.80
2018-02-08T15:07:06.476Z,28.10
2018-02-08T15:08:06.504Z,28.30
2018-02-08T15:09:06.509Z,28.80
2018-02-08T15:10:06.522Z,25.80
2018-02-08T15:11:06.535Z,26.30
2018-02-08T15:12:06.550Z,27.60
2018-02-08T15:13:06.565Z,27.30
2018-02-08T15:14:06.578Z,30.10
2018-02-08T15:15:06.596Z,29.10
2018-02-08T15:16:06.616Z,30.10
2018-02-08T15:17:06.624Z,30.50
2018-02-08T15:18:06.640Z,29.80
2018-02-08T15:19:06.661Z,29.80
2018-02-08T15:20:06.668Z,28.30
2018-02-08T15:21:06.686Z,28.20
2018-02-08T15:22:06.701Z,29.50
2018-02-08T15:23:06.715Z,29.60
2018-02-08T15:24:06.730Z,30.70
2018-02-08T15:25:06.746Z,29.40
2018-02-08T15:26:06.767Z,27.00
2018-02-08T15:27:06.780Z,26.60
2018-02-08T15:28:06.811Z,27.70
2018-02-08T15:29:06.834Z,28.10
2018-02-08T15:30:06.819Z,29.40
2018-02-08T15:31:06.873Z,28.80
2018-02-08T15:32:06.870Z,26.00
2018-02-08T15:33:06.869Z,26.50
2018-02-08T15:34:06.884Z,28.00
2018-02-08T15:35:06.892Z,28.20
2018-02-08T15:36:06.913Z,27.80
2018-02-08T15:37:06.923Z,29.10
2018-02-08T15:38:06.953Z,26.20
2018-02-08T15:39:06.956Z,28.30
2018-02-08T15:40:07.020Z,30.20
2018-02-08T15:41:07.032Z,29.60
2018-02-08T15:42:07.028Z,28.70
2018-02-08T15:43:07.010Z,27.40
2018-02-08T15:44:07.037Z,27.50
2018-02-08T15:45:07.047Z,28.10
2018-02-08T15:46:07.108Z,28.60
2018-02-08T15:47:07.102Z,29.20
2018-02-08T15:48:07.090Z,27.50
2018-02-08T15:49:07.114Z,29.10